Time;durP1;ratioP1;P1;durP2;ratioP2;P2;SDS_P1;SDS_P2;PMS_P1;PMS_P2;Temp;Humidity;BMP_temperature;BMP_pressure;BME280_temperature;BME280_humidity;BME280_pressure;Samples;Min_cycle;Max_cycle;Signal;HPM_P1;HPM_P2
2023/04/08 00:01:29;;;;;;;35.00;22.83;;;;;;;18.43;46.60;102390.84;5039067;28;20056;-26
2023/04/08 00:03:56;;;;;;;28.88;19.10;;;;;;;18.40;46.84;102391.06;5047716;28;20087;-25
2023/04/08 00:06:23;;;;;;;31.58;20.70;;;;;;;18.38;46.49;102388.50;5045318;28;20045;-26
2023/04/08 00:08:49;;;;;;;30.17;19.40;;;;;;;18.37;46.62;102396.66;5049367;28;20136;-26
2023/04/08 00:11:16;;;;;;;29.55;19.60;;;;;;;18.35;46.76;102399.47;5043943;28;20049;-26
2023/04/08 00:13:43;;;;;;;29.42;19.55;;;;;;;18.33;47.03;102397.88;5050493;28;20056;-25
2023/04/08 00:16:10;;;;;;;29.58;19.33;;;;;;;18.31;46.58;102403.38;5046406;28;20055;-26
2023/04/08 00:18:37;;;;;;;29.10;18.98;;;;;;;18.28;46.97;102395.56;5045589;28;20341;-25
2023/04/08 00:21:03;;;;;;;28.17;19.00;;;;;;;18.25;47.08;102390.41;5048169;28;20345;-26
2023/04/08 00:23:30;;;;;;;31.30;20.08;;;;;;;18.24;46.92;102388.69;5043459;28;20053;-26
2023/04/08 00:25:57;;;;;;;29.52;18.60;;;;;;;18.21;47.06;102396.97;5044083;28;20164;-25
2023/04/08 00:28:23;;;;;;;29.75;19.80;;;;;;;18.19;47.25;102394.44;5050064;28;20387;-26
2023/04/08 00:30:52;;;;;;;28.63;18.60;;;;;;;18.18;46.96;102392.72;5050567;28;20040;-26
2023/04/08 00:33:18;;;;;;;32.38;19.13;;;;;;;18.16;47.27;102388.44;5050025;28;20092;-26
2023/04/08 00:35:45;;;;;;;26.38;18.13;;;;;;;18.14;46.88;102393.94;5043030;28;20178;-25
2023/04/08 00:38:11;;;;;;;27.90;17.85;;;;;;;18.13;47.29;102394.03;5040921;28;20053;-26
2023/04/08 00:40:38;;;;;;;27.45;17.63;;;;;;;18.10;47.09;102392.44;5041125;28;20069;-26
2023/04/08 00:43:04;;;;;;;27.13;17.63;;;;;;;18.09;47.17;102384.50;5051321;28;20055;-26
2023/04/08 00:45:33;;;;;;;27.83;17.13;;;;;;;18.08;47.14;102390.84;5048738;28;20057;-26
2023/04/08 00:48:01;;;;;;;25.80;16.77;;;;;;;18.05;47.06;102389.28;5052665;28;20045;-25
2023/04/08 00:50:28;;;;;;;25.92;16.90;;;;;;;18.04;47.27;102392.91;5049367;28;20353;-25
2023/04/08 00:52:54;;;;;;;24.75;16.52;;;;;;;18.02;46.82;102394.84;5050447;28;20048;-26
2023/04/08 00:55:21;;;;;;;26.55;17.27;;;;;;;18.00;47.09;102388.75;5051706;28;20445;-26
2023/04/08 00:57:48;;;;;;;26.20;17.00;;;;;;;17.99;47.47;102398.63;5051359;28;20137;-26
2023/04/08 01:00:15;;;;;;;23.55;16.52;;;;;;;17.97;47.10;102392.53;5047460;28;20156;-26
2023/04/08 01:02:45;;;;;;;24.65;16.15;;;;;;;17.97;47.24;102399.72;5051063;28;20076;-25
2023/04/08 01:05:18;;;;;;;24.42;16.17;;;;;;;17.96;47.32;102398.84;5050248;28;20099;-26
2023/04/08 01:07:49;;;;;;;25.35;16.33;;;;;;;17.95;47.17;102394.47;5049084;28;20048;-26
2023/04/08 01:10:21;;;;;;;25.52;17.08;;;;;;;17.94;47.00;102395.44;5046729;28;20352;-25
2023/04/08 01:12:52;;;;;;;23.08;15.13;;;;;;;17.93;47.31;102393.72;5046832;28;20069;-26
2023/04/08 01:15:20;;;;;;;22.10;15.07;;;;;;;17.92;47.27;102394.69;5040999;28;20049;-25
2023/04/08 01:17:49;;;;;;;24.65;15.98;;;;;;;17.91;47.14;102394.81;5040948;28;20048;-25
2023/04/08 01:20:17;;;;;;;22.67;14.88;;;;;;;17.91;47.30;102400.16;5041302;28;20107;-25
2023/04/08 01:22:59;;;;;;;20.85;14.27;;;;;;;17.89;47.16;102411.03;5038655;28;20053;-25
2023/04/08 01:25:31;;;;;;;22.30;14.50;;;;;;;17.89;47.20;102415.50;5042330;28;20048;-25
2023/04/08 01:28:00;;;;;;;21.02;13.73;;;;;;;17.88;47.16;102414.66;5042086;28;20052;-26
2023/04/08 01:30:29;;;;;;;21.75;14.65;;;;;;;17.88;47.11;102417.34;5040680;28;20349;-26
2023/04/08 01:32:58;;;;;;;19.67;13.50;;;;;;;17.87;47.42;102414.78;5041535;28;20634;-26
2023/04/08 01:35:25;;;;;;;22.00;14.40;;;;;;;17.86;47.54;102411.25;5040220;28;20333;-26
2023/04/08 01:37:53;;;;;;;20.13;13.75;;;;;;;17.86;47.35;102416.63;5045019;28;20064;-26
2023/04/08 01:40:20;;;;;;;21.52;13.95;;;;;;;17.86;47.24;102413.94;5047937;28;20052;-26
2023/04/08 01:42:49;;;;;;;21.50;13.75;;;;;;;17.85;47.21;102420.28;5052666;28;20059;-26
2023/04/08 01:45:17;;;;;;;22.20;13.77;;;;;;;17.86;47.28;102418.44;5050300;28;20091;-26
2023/04/08 01:47:47;;;;;;;21.15;13.93;;;;;;;17.85;46.63;102422.06;5052034;28;20041;-25
2023/04/08 01:50:15;;;;;;;19.58;13.27;;;;;;;17.84;47.66;102420.38;5044935;28;20052;-26
2023/04/08 01:52:45;;;;;;;21.90;13.20;;;;;;;17.83;47.10;102424.03;5043358;28;20057;-26
2023/04/08 01:55:11;;;;;;;18.70;12.63;;;;;;;17.83;47.33;102418.66;5043661;28;20056;-26
2023/04/08 01:57:43;;;;;;;18.52;12.77;;;;;;;17.81;47.40;102420.59;5045011;28;20049;-25
2023/04/08 02:00:12;;;;;;;20.33;12.70;;;;;;;17.81;47.06;102420.59;5043554;28;20071;-25
2023/04/08 02:02:41;;;;;;;18.02;11.90;;;;;;;17.80;47.65;102426.94;5044969;28;20056;-25
2023/04/08 02:05:08;;;;;;;20.40;13.07;;;;;;;17.79;47.58;102426.06;5043639;28;20064;-26
2023/04/08 02:07:35;;;;;;;18.58;11.68;;;;;;;17.79;47.01;102419.84;5044101;28;20045;-25
2023/04/08 02:10:02;;;;;;;19.00;12.05;;;;;;;17.77;46.87;102425.34;5042927;28;20422;-25
2023/04/08 02:12:30;;;;;;;18.92;12.00;;;;;;;17.76;47.08;102424.47;5041444;28;20045;-26
2023/04/08 02:14:57;;;;;;;16.75;11.18;;;;;;;17.75;46.97;102428.13;5042781;28;20071;-26
2023/04/08 02:17:40;;;;;;;18.15;11.32;;;;;;;17.74;47.27;102430.91;5042708;28;20069;-26
2023/04/08 02:20:10;;;;;;;17.00;11.63;;;;;;;17.74;46.82;102429.09;5046121;28;20527;-26
2023/04/08 02:22:53;;;;;;;16.73;11.55;;;;;;;17.73;47.52;102422.00;5045159;28;20057;-25
2023/04/08 02:25:23;;;;;;;18.00;11.90;;;;;;;17.73;46.91;102418.47;5042666;28;20057;-26
2023/04/08 02:27:53;;;;;;;17.20;11.38;;;;;;;17.72;47.47;102425.63;5040511;28;20499;-25
2023/04/08 02:30:21;;;;;;;15.65;10.68;;;;;;;17.71;47.31;102425.75;5043074;28;20320;-26
2023/04/08 02:32:49;;;;;;;18.13;11.57;;;;;;;17.70;47.35;102422.22;5042116;28;20140;-25
2023/04/08 02:35:17;;;;;;;14.38;9.68;;;;;;;17.70;47.44;102430.25;5041851;28;20084;-26
2023/04/08 02:37:46;;;;;;;15.38;10.70;;;;;;;17.68;47.78;102432.19;5039505;28;20064;-26
2023/04/08 02:40:22;;;;;;;15.45;10.48;;;;;;;17.68;47.02;102442.06;5043702;28;20057;-26
2023/04/08 02:42:49;;;;;;;13.95;9.88;;;;;;;17.68;47.40;102436.69;5050895;28;20045;-26
2023/04/08 02:45:16;;;;;;;15.23;10.20;;;;;;;17.67;47.38;102435.84;5050401;28;20053;-26
2023/04/08 02:47:42;;;;;;;14.98;9.80;;;;;;;17.67;47.45;102443.88;5050584;28;20352;-26
2023/04/08 02:50:09;;;;;;;15.00;9.90;;;;;;;17.65;47.42;102443.16;5052621;28;20048;-25
2023/04/08 02:52:36;;;;;;;14.05;8.85;;;;;;;17.65;46.92;102447.66;5048388;28;20096;-26
2023/04/08 02:55:05;;;;;;;13.70;9.57;;;;;;;17.65;47.66;102443.16;5047057;28;20323;-26
2023/04/08 02:57:31;;;;;;;13.32;9.23;;;;;;;17.64;47.07;102446.78;5050029;28;20049;-25
2023/04/08 02:59:58;;;;;;;15.27;9.80;;;;;;;17.63;47.46;102444.22;5052284;28;20132;-26
2023/04/08 03:02:25;;;;;;;13.35;8.80;;;;;;;17.63;47.54;102452.28;5052757;28;20440;-25
2023/04/08 03:04:51;;;;;;;12.30;8.63;;;;;;;17.63;47.51;102449.59;5051258;28;20496;-26
2023/04/08 03:07:18;;;;;;;13.30;9.07;;;;;;;17.61;47.53;102452.41;5051595;28;20057;-25
2023/04/08 03:09:45;;;;;;;13.32;9.02;;;;;;;17.61;47.36;102446.16;5053869;28;20053;-26
2023/04/08 03:12:12;;;;;;;13.05;8.70;;;;;;;17.60;48.05;102456.03;5047113;28;20053;-26
2023/04/08 03:14:38;;;;;;;12.40;8.68;;;;;;;17.60;47.25;102460.53;5046654;28;20056;-26
2023/04/08 03:17:05;;;;;;;11.10;7.97;;;;;;;17.58;47.65;102457.97;5045917;28;20045;-26
2023/04/08 03:19:31;;;;;;;13.48;8.57;;;;;;;17.58;47.54;102451.75;5046309;28;20381;-25
2023/04/08 03:21:58;;;;;;;13.38;9.10;;;;;;;17.58;48.13;102455.28;5045415;28;20045;-26
2023/04/08 03:24:24;;;;;;;12.77;8.35;;;;;;;17.57;47.00;102455.38;5044306;28;20524;-26
2023/04/08 03:26:51;;;;;;;9.05;7.03;;;;;;;17.56;47.58;102454.53;5043479;28;20045;-26
2023/04/08 03:29:18;;;;;;;11.55;7.90;;;;;;;17.57;47.09;102453.59;5046683;28;20076;-25
2023/04/08 03:31:45;;;;;;;10.07;7.65;;;;;;;17.56;47.61;102453.69;5045823;28;20069;-26
2023/04/08 03:34:11;;;;;;;11.68;8.18;;;;;;;17.57;47.58;102452.69;5046819;28;20053;-26
2023/04/08 03:36:38;;;;;;;11.85;8.23;;;;;;;17.55;47.60;102452.81;5044929;28;20463;-26
2023/04/08 03:39:05;;;;;;;10.85;8.05;;;;;;;17.55;47.28;102451.97;5048632;28;20053;-26
2023/04/08 03:41:31;;;;;;;11.10;7.55;;;;;;;17.56;47.42;102459.03;5047983;28;20045;-26
2023/04/08 03:43:58;;;;;;;10.40;7.35;;;;;;;17.54;47.11;102451.13;5043342;28;20136;-25
2023/04/08 03:46:24;;;;;;;11.38;8.38;;;;;;;17.54;46.92;102451.13;5046900;28;20047;-25
2023/04/08 03:48:51;;;;;;;10.75;7.75;;;;;;;17.54;47.17;102456.47;5045006;28;20164;-26
2023/04/08 03:51:18;;;;;;;10.75;7.57;;;;;;;17.53;47.75;102454.78;5049374;28;20057;-26
2023/04/08 03:53:44;;;;;;;10.95;7.07;;;;;;;17.53;47.23;102460.13;5048044;28;20045;-25
2023/04/08 03:56:11;;;;;;;10.60;7.32;;;;;;;17.54;47.47;102461.00;5043802;28;20057;-25
2023/04/08 03:58:38;;;;;;;11.82;7.75;;;;;;;17.52;47.39;102464.63;5043779;28;20060;-26
2023/04/08 04:01:04;;;;;;;10.88;7.30;;;;;;;17.53;47.21;102460.13;5044478;28;20183;-26
2023/04/08 04:03:31;;;;;;;9.70;6.72;;;;;;;17.54;47.38;102466.34;5041146;28;20060;-25
2023/04/08 04:05:58;;;;;;;9.27;6.57;;;;;;;17.52;47.72;102464.63;5048425;28;20067;-25
2023/04/08 04:08:24;;;;;;;10.05;7.00;;;;;;;17.52;47.30;102463.75;5045676;28;20401;-25
2023/04/08 04:10:51;;;;;;;9.35;6.70;;;;;;;17.52;47.43;102467.28;5040886;28;20048;-25
2023/04/08 04:13:18;;;;;;;9.90;6.95;;;;;;;17.51;47.04;102462.91;5040884;28;20138;-26
2023/04/08 04:15:45;;;;;;;9.18;6.55;;;;;;;17.51;47.41;102470.09;5043916;28;20128;-25
2023/04/08 04:18:11;;;;;;;9.48;6.88;;;;;;;17.51;47.67;102468.28;5045708;28;20053;-26
2023/04/08 04:20:42;;;;;;;9.00;6.60;;;;;;;17.51;47.26;102470.94;5042752;28;20048;-25
2023/04/08 04:23:08;;;;;;;10.20;7.13;;;;;;;17.51;47.10;102470.09;5042522;28;20041;-26
2023/04/08 04:25:35;;;;;;;9.57;6.85;;;;;;;17.51;47.65;102478.16;5046199;28;20083;-25
2023/04/08 04:28:02;;;;;;;9.43;6.40;;;;;;;17.50;47.60;102471.06;5048134;28;20059;-25
2023/04/08 04:30:28;;;;;;;9.43;6.75;;;;;;;17.50;47.09;102482.66;5043484;28;20072;-26
2023/04/08 04:32:56;;;;;;;9.50;6.60;;;;;;;17.50;46.99;102492.53;5045945;28;20056;-26
2023/04/08 04:35:23;;;;;;;9.45;6.40;;;;;;;17.48;47.48;102491.75;5044449;28;20133;-25
2023/04/08 04:37:50;;;;;;;9.23;6.40;;;;;;;17.47;47.67;102495.41;5044578;28;20119;-26
2023/04/08 04:40:17;;;;;;;8.07;6.03;;;;;;;17.47;47.88;102501.63;5043848;28;20048;-25
2023/04/08 04:42:44;;;;;;;7.20;5.50;;;;;;;17.47;47.79;102501.63;5047940;28;20052;-25
2023/04/08 04:45:11;;;;;;;8.95;6.38;;;;;;;17.45;47.50;102500.91;5048207;28;20147;-25
2023/04/08 04:47:37;;;;;;;7.80;5.72;;;;;;;17.46;47.79;102515.16;5048909;28;20041;-25
2023/04/08 04:50:05;;;;;;;8.18;6.10;;;;;;;17.45;47.52;102516.97;5050018;28;20391;-25
2023/04/08 04:52:31;;;;;;;8.85;5.45;;;;;;;17.44;47.30;102517.94;5050387;28;20059;-26
2023/04/08 04:54:58;;;;;;;8.18;5.75;;;;;;;17.44;47.87;102517.94;5050291;28;20433;-26
2023/04/08 04:57:25;;;;;;;7.63;5.57;;;;;;;17.43;47.00;102520.72;5050836;28;20073;-25
2023/04/08 04:59:51;;;;;;;8.18;6.20;;;;;;;17.41;47.51;102514.63;5045004;28;20124;-26
2023/04/08 05:02:18;;;;;;;8.63;5.93;;;;;;;17.40;47.69;102521.78;5045670;28;20128;-25
2023/04/08 05:04:44;;;;;;;7.55;5.55;;;;;;;17.40;47.72;102531.66;5049690;28;20057;-25
2023/04/08 05:07:11;;;;;;;8.43;5.55;;;;;;;17.39;47.69;102525.44;5048550;28;20148;-25
2023/04/08 05:09:37;;;;;;;8.05;5.32;;;;;;;17.40;47.36;102534.34;5054655;28;20057;-25
2023/04/08 05:12:04;;;;;;;8.63;5.82;;;;;;;17.39;47.63;102527.28;5051072;28;20052;-25
2023/04/08 05:14:32;;;;;;;6.72;5.00;;;;;;;17.39;47.30;102535.31;5061859;28;20436;-26
2023/04/08 05:16:58;;;;;;;7.10;5.13;;;;;;;17.39;47.33;102529.94;5048406;28;20056;-25
2023/04/08 05:19:25;;;;;;;8.63;5.65;;;;;;;17.38;47.41;102536.28;5049388;28;21216;-25
2023/04/08 05:21:51;;;;;;;7.05;5.47;;;;;;;17.38;47.19;102539.81;5051940;28;20049;-25
2023/04/08 05:24:18;;;;;;;7.10;4.97;;;;;;;17.41;47.41;102534.25;5050748;28;20059;-25
2023/04/08 05:26:46;;;;;;;6.90;4.97;;;;;;;17.47;47.82;102544.53;5051441;28;20053;-25
2023/04/08 05:29:13;;;;;;;8.38;5.47;;;;;;;17.54;47.38;102531.56;5049974;28;20061;-25
2023/04/08 05:31:40;;;;;;;7.55;5.05;;;;;;;17.59;47.65;102540.13;5052734;28;20348;-25
2023/04/08 05:34:06;;;;;;;6.25;4.47;;;;;;;17.64;47.18;102543.31;5055659;28;20132;-25
2023/04/08 05:36:33;;;;;;;7.15;5.07;;;;;;;17.71;47.24;102544.59;5053544;28;20049;-25
2023/04/08 05:38:59;;;;;;;6.07;4.82;;;;;;;17.76;46.73;102539.78;5050518;28;20067;-25
2023/04/08 05:41:28;;;;;;;7.53;5.13;;;;;;;17.82;46.57;102546.56;5054366;28;20048;-26
2023/04/08 05:43:55;;;;;;;6.28;4.60;;;;;;;17.86;46.77;102544.50;5058964;28;20094;-25
2023/04/08 05:46:22;;;;;;;6.15;4.53;;;;;;;17.90;46.70;102548.69;5047559;28;20063;-26
2023/04/08 05:48:48;;;;;;;7.75;5.15;;;;;;;17.93;46.38;102556.47;5047517;28;20111;-25
2023/04/08 05:51:16;;;;;;;6.18;4.82;;;;;;;17.95;46.38;102551.88;5051011;28;20056;-25
2023/04/08 05:53:46;;;;;;;6.65;4.50;;;;;;;17.98;46.07;102554.34;5045056;28;20036;-25
2023/04/08 05:56:12;;;;;;;6.43;4.55;;;;;;;17.99;46.00;102556.06;5051582;28;20045;-25
2023/04/08 05:58:39;;;;;;;5.20;4.00;;;;;;;17.98;46.26;102563.25;5049866;28;20550;-25
2023/04/08 06:01:06;;;;;;;6.50;4.70;;;;;;;17.98;46.65;102562.41;5047447;28;20060;-26
2023/04/08 06:03:32;;;;;;;6.97;4.82;;;;;;;17.99;46.35;102564.97;5052015;28;20543;-26
2023/04/08 06:05:59;;;;;;;5.68;4.32;;;;;;;18.00;46.41;102565.81;5051702;28;20874;-25
2023/04/08 06:08:26;;;;;;;6.45;4.68;;;;;;;18.07;46.23;102568.91;5049766;28;20531;-25
2023/04/08 06:10:52;;;;;;;5.30;4.25;;;;;;;18.15;46.44;102569.22;5046146;28;20098;-26
2023/04/08 06:13:20;;;;;;;4.90;3.95;;;;;;;18.24;45.98;102579.25;5049376;28;20755;-25
2023/04/08 06:15:50;;;;;;;6.03;4.38;;;;;;;18.32;46.19;102581.38;5045822;28;20517;-25
2023/04/08 06:18:16;;;;;;;5.88;4.75;;;;;;;18.41;45.97;102576.22;5048944;28;20052;-26
2023/04/08 06:20:43;;;;;;;6.05;4.35;;;;;;;18.50;45.93;102572.84;5049386;28;20052;-25
2023/04/08 06:23:10;;;;;;;5.47;4.13;;;;;;;18.58;45.58;102580.31;5045599;28;20192;-25
2023/04/08 06:25:36;;;;;;;6.53;4.35;;;;;;;18.68;45.36;102578.63;5038576;28;20056;-25
2023/04/08 06:28:03;;;;;;;5.30;4.10;;;;;;;18.77;45.74;102590.53;5039827;28;20148;-26
2023/04/08 06:30:30;;;;;;;4.97;3.72;;;;;;;18.86;45.19;102586.34;5042621;28;20147;-26
2023/04/08 06:32:56;;;;;;;5.20;3.95;;;;;;;18.93;45.23;102588.41;5047661;28;20045;-25
2023/04/08 06:35:23;;;;;;;4.88;3.53;;;;;;;19.02;45.29;102607.53;5045584;28;20053;-26
2023/04/08 06:37:50;;;;;;;5.13;3.75;;;;;;;19.09;45.15;102595.31;5035580;28;20053;-25
2023/04/08 06:40:16;;;;;;;5.80;4.00;;;;;;;19.14;45.20;102602.06;5041016;28;20420;-26
2023/04/08 06:42:43;;;;;;;4.72;3.55;;;;;;;19.21;44.93;102602.41;5045916;28;20047;-26
2023/04/08 06:45:10;;;;;;;4.95;3.58;;;;;;;19.24;45.20;102608.41;5047607;28;20172;-26
2023/04/08 06:47:36;;;;;;;5.32;4.00;;;;;;;19.26;45.48;102602.94;5051335;28;20455;-25
2023/04/08 06:50:04;;;;;;;4.93;3.78;;;;;;;19.28;44.89;102613.56;5051518;28;20447;-25
2023/04/08 06:52:30;;;;;;;5.63;3.92;;;;;;;19.28;44.71;102611.72;5051698;28;20052;-26
2023/04/08 06:54:57;;;;;;;5.22;3.67;;;;;;;19.27;45.24;102615.41;5050891;28;20065;-26
2023/04/08 06:57:23;;;;;;;7.85;5.32;;;;;;;19.24;44.68;102613.78;5052292;28;20129;-26
2023/04/08 06:59:51;;;;;;;7.45;5.72;;;;;;;19.23;44.87;102614.78;5053327;28;20410;-26
2023/04/08 07:02:18;;;;;;;7.88;5.03;;;;;;;19.22;45.06;102626.50;5052831;28;20048;-26
2023/04/08 07:04:45;;;;;;;7.47;5.32;;;;;;;19.21;45.34;102629.31;5047794;28;20492;-26
2023/04/08 07:07:12;;;;;;;6.75;5.03;;;;;;;19.18;45.00;102633.09;5046390;28;20383;-26
2023/04/08 07:09:42;;;;;;;6.78;5.00;;;;;;;19.17;45.18;102639.44;5043376;28;20045;-26
2023/04/08 07:12:08;;;;;;;6.07;4.63;;;;;;;19.16;44.91;102640.41;5041427;28;20067;-26
2023/04/08 07:14:35;;;;;;;6.28;4.55;;;;;;;19.14;44.84;102653.13;5039172;28;20455;-26
2023/04/08 07:17:01;;;;;;;5.75;4.40;;;;;;;19.11;45.46;102650.66;5043164;28;20182;-26
2023/04/08 07:19:28;;;;;;;5.97;4.53;;;;;;;19.10;44.97;102654.34;5041972;28;20049;-26
2023/04/08 07:21:55;;;;;;;7.13;4.95;;;;;;;19.08;45.58;102652.72;5040936;28;20091;-26
2023/04/08 07:24:21;;;;;;;7.75;5.30;;;;;;;19.08;44.84;102656.25;5040719;28;20449;-26
2023/04/08 07:26:48;;;;;;;6.72;4.97;;;;;;;19.07;45.33;102659.94;5041758;28;20049;-26
2023/04/08 07:29:15;;;;;;;7.00;4.95;;;;;;;19.06;45.16;102662.75;5044919;28;20382;-26
2023/04/08 07:31:42;;;;;;;7.68;5.20;;;;;;;19.05;45.16;102661.88;5042553;28;20496;-26
2023/04/08 07:34:09;;;;;;;8.32;5.70;;;;;;;19.05;45.05;102664.56;5045984;28;20049;-26
2023/04/08 07:36:36;;;;;;;6.40;4.90;;;;;;;19.04;44.84;102665.53;5040460;28;20057;-26
2023/04/08 07:39:02;;;;;;;7.78;5.53;;;;;;;19.03;45.15;102662.97;5040705;28;20055;-26
2023/04/08 07:41:29;;;;;;;8.35;5.88;;;;;;;19.02;44.56;102666.63;5043492;28;20055;-26
2023/04/08 07:43:55;;;;;;;7.78;5.20;;;;;;;19.01;44.82;102667.59;5043006;28;20056;-25
2023/04/08 07:46:22;;;;;;;7.30;5.53;;;;;;;19.00;44.84;102661.38;5040131;28;20048;-26
2023/04/08 07:48:49;;;;;;;27.48;16.65;;;;;;;18.98;45.47;102671.38;5040112;28;20201;-26
2023/04/08 07:51:16;;;;;;;49.70;21.10;;;;;;;18.96;45.99;102665.25;5041771;28;20052;-26
2023/04/08 07:53:46;;;;;;;39.88;19.30;;;;;;;18.94;45.80;102669.91;5038566;28;20508;-26
2023/04/08 07:56:14;;;;;;;29.83;16.73;;;;;;;18.93;46.13;102678.91;5039462;28;20049;-26
2023/04/08 07:58:41;;;;;;;26.98;15.95;;;;;;;18.91;46.23;102676.34;5039422;28;20704;-26
2023/04/08 08:01:20;;;;;;;33.90;15.30;;;;;;;18.90;45.57;102680.03;5040972;28;20443;-26
2023/04/08 08:03:50;;;;;;;63.63;27.75;;;;;;;18.93;46.42;102682.44;5037832;28;20045;-25
2023/04/08 08:06:18;;;;;;;74.68;27.85;;;;;;;18.93;47.19;102679.75;5042010;28;20045;-26
2023/04/08 08:08:45;;;;;;;56.40;27.45;;;;;;;18.93;47.54;102682.44;5039841;28;20463;-26
2023/04/08 08:11:12;;;;;;;68.75;26.38;;;;;;;18.94;47.79;102680.66;5035809;28;20060;-27
2023/04/08 08:13:38;;;;;;;55.78;28.10;;;;;;;18.94;48.29;102686.03;5040126;28;20078;-27
2023/04/08 08:16:07;;;;;;;66.70;33.85;;;;;;;18.95;48.64;102687.72;5041587;28;20056;-26
2023/04/08 08:18:35;;;;;;;62.90;31.55;;;;;;;18.95;48.34;102691.28;5039085;28;20791;-26
2023/04/08 08:21:02;;;;;;;58.78;30.23;;;;;;;18.96;48.12;102689.44;5038136;28;20051;-26
2023/04/08 08:23:28;;;;;;;54.25;29.90;;;;;;;18.98;48.05;102690.19;5037281;28;20060;-26
2023/04/08 08:26:08;;;;;;;60.05;31.27;;;;;;;19.00;48.26;102696.28;5037170;28;20403;-26
2023/04/08 08:28:36;;;;;;;59.30;30.73;;;;;;;19.03;47.76;102685.31;5036731;28;20145;-26
2023/04/08 08:31:04;;;;;;;59.08;30.90;;;;;;;19.06;47.76;102700.38;5038190;28;20063;-26
2023/04/08 08:33:32;;;;;;;53.72;30.48;;;;;;;19.09;47.04;102686.69;5039348;28;20417;-26
2023/04/08 08:35:59;;;;;;;54.25;31.35;;;;;;;19.11;46.97;102692.81;5037823;28;20056;-26
2023/04/08 08:38:26;;;;;;;54.40;32.28;;;;;;;19.13;46.87;102697.09;5039772;28;20349;-26
2023/04/08 08:40:55;;;;;;;52.90;30.92;;;;;;;19.15;47.22;102684.41;5044443;28;20049;-26
2023/04/08 08:43:23;;;;;;;55.70;30.40;;;;;;;19.17;47.13;102693.19;5050706;28;20087;-26
2023/04/08 08:45:50;;;;;;;55.45;31.10;;;;;;;19.20;46.89;102692.97;5044080;28;20054;-26
2023/04/08 08:48:16;;;;;;;56.88;28.88;;;;;;;19.21;46.64;102691.97;5049133;28;20242;-26
2023/04/08 08:50:43;;;;;;;47.55;28.40;;;;;;;19.24;46.64;102694.44;5046368;28;20053;-26
2023/04/08 08:53:09;;;;;;;44.17;27.05;;;;;;;19.28;46.42;102694.22;5037428;28;20041;-27
2023/04/08 08:55:39;;;;;;;47.75;27.95;;;;;;;19.30;46.57;102701.22;5043493;28;20059;-27
2023/04/08 08:58:26;;;;;;;51.35;29.60;;;;;;;19.32;46.15;102699.25;5042118;28;20060;-26
2023/04/08 09:00:53;;;;;;;52.15;28.80;;;;;;;19.36;46.24;102702.56;5048946;28;20045;-26
2023/04/08 09:03:28;;;;;;;48.60;27.75;;;;;;;19.37;46.17;102702.44;5050406;28;20056;-26
2023/04/08 09:05:57;;;;;;;46.15;26.40;;;;;;;19.39;46.55;102703.19;5048756;28;20045;-26
2023/04/08 09:08:25;;;;;;;45.13;26.13;;;;;;;19.42;46.06;102704.78;5050575;28;20048;-26
2023/04/08 09:10:52;;;;;;;45.33;25.27;;;;;;;19.46;45.99;102711.66;5050520;28;20379;-26
2023/04/08 09:13:21;;;;;;;42.42;25.38;;;;;;;19.46;46.05;102709.81;5049930;28;20128;-26
2023/04/08 09:16:05;;;;;;;43.08;25.10;;;;;;;19.50;45.80;102702.38;5048017;28;20492;-26
2023/04/08 09:18:32;;;;;;;43.13;25.52;;;;;;;19.54;46.29;102711.91;5048371;28;20045;-26
2023/04/08 09:21:00;;;;;;;36.47;22.77;;;;;;;19.57;45.58;102719.72;5046946;28;20132;-26
2023/04/08 09:23:53;;;;;;;40.92;23.10;;;;;;;19.59;45.43;102720.47;5046971;28;20080;-26
2023/04/08 09:26:23;;;;;;;41.80;24.92;;;;;;;19.65;46.06;102711.97;5041802;28;20049;-26
2023/04/08 09:29:07;;;;;;;36.67;23.70;;;;;;;19.67;45.40;102723.47;5050396;28;20429;-26
2023/04/08 09:31:55;;;;;;;37.08;21.90;;;;;;;19.75;46.02;102722.03;5049443;28;20128;-26
2023/04/08 09:34:22;;;;;;;40.67;24.00;;;;;;;19.79;46.01;102720.81;5047839;28;20076;-27
2023/04/08 09:36:50;;;;;;;41.70;24.20;;;;;;;19.83;45.23;102720.44;5048413;28;20045;-27
2023/04/08 09:39:17;;;;;;;38.78;23.20;;;;;;;19.89;45.28;102717.25;5049840;28;20144;-26
2023/04/08 09:41:47;;;;;;;37.88;22.77;;;;;;;19.96;45.38;102723.88;5048684;28;20045;-27
2023/04/08 09:44:18;;;;;;;39.80;23.45;;;;;;;20.02;45.63;102717.19;5046666;28;20131;-26
2023/04/08 09:46:48;;;;;;;38.30;23.75;;;;;;;20.07;45.46;102720.34;5044563;28;20041;-26
2023/04/08 09:49:24;;;;;;;36.88;22.70;;;;;;;20.13;45.76;102721.69;5047049;28;20126;-26
2023/04/08 09:52:12;;;;;;;36.17;22.25;;;;;;;20.19;45.72;102726.59;5047456;28;20052;-27
2023/04/08 09:55:00;;;;;;;35.70;22.60;;;;;;;20.25;45.61;102722.56;5040613;28;20044;-27
2023/04/08 09:57:35;;;;;;;32.60;20.85;;;;;;;20.31;45.53;102722.94;5051808;28;20136;-27
2023/04/08 10:00:16;;;;;;;39.00;21.73;;;;;;;20.37;44.86;102721.56;5053324;28;20050;-27
2023/04/08 10:02:48;;;;;;;35.65;21.60;;;;;;;20.42;44.73;102727.44;5052751;28;20142;-26
2023/04/08 10:05:17;;;;;;;34.30;21.63;;;;;;;20.47;45.31;102727.94;5050433;28;20056;-26
2023/04/08 10:07:44;;;;;;;34.47;21.33;;;;;;;20.53;45.21;102726.59;5050361;28;20056;-27
2023/04/08 10:10:11;;;;;;;32.17;20.00;;;;;;;20.58;44.60;102724.38;5054206;28;20080;-27
2023/04/08 10:12:38;;;;;;;35.78;19.80;;;;;;;20.63;44.81;102723.06;5050273;28;20357;-27
2023/04/08 10:15:32;;;;;;;31.58;20.02;;;;;;;20.67;44.54;102721.81;5050762;28;20045;-27
2023/04/08 10:18:01;;;;;;;31.13;19.83;;;;;;;20.72;44.54;102716.06;5047969;28;20067;-26
2023/04/08 10:20:37;;;;;;;30.23;19.35;;;;;;;20.78;44.48;102725.47;5052466;28;20063;-27
2023/04/08 10:23:06;;;;;;;35.35;20.70;;;;;;;20.82;44.54;102713.44;5044643;28;20053;-27
2023/04/08 10:25:37;;;;;;;29.15;18.58;;;;;;;20.86;44.71;102722.97;5048400;28;20056;-27
2023/04/08 10:28:24;;;;;;;28.67;18.73;;;;;;;20.90;44.79;102725.31;5051656;28;20084;-27
2023/04/08 10:30:51;;;;;;;29.88;18.88;;;;;;;20.97;44.24;102720.25;5051288;28;20352;-27
2023/04/08 10:33:30;;;;;;;29.45;18.05;;;;;;;21.01;44.56;102715.47;5050943;28;20520;-27
2023/04/08 10:36:10;;;;;;;28.50;18.38;;;;;;;21.04;44.24;102716.09;5048054;28;20305;-27
2023/04/08 10:38:43;;;;;;;27.70;18.48;;;;;;;21.09;44.35;102713.00;5052429;28;20057;-27
2023/04/08 10:41:12;;;;;;;29.33;17.50;;;;;;;21.13;44.22;102714.44;5051847;28;20049;-27
2023/04/08 10:43:39;;;;;;;28.13;17.65;;;;;;;21.16;44.40;102708.81;5052816;28;20044;-27
2023/04/08 10:46:10;;;;;;;26.80;17.27;;;;;;;21.20;44.17;102704.88;5052279;28;20065;-27
2023/04/08 10:48:37;;;;;;;28.90;16.73;;;;;;;21.24;44.21;102705.47;5053040;28;20053;-27
2023/04/08 10:51:04;;;;;;;26.92;17.48;;;;;;;21.29;44.39;102703.22;5052009;28;20061;-27
2023/04/08 10:53:36;;;;;;;27.08;16.48;;;;;;;21.32;43.77;102692.19;5051119;28;20124;-27
2023/04/08 10:56:12;;;;;;;26.38;16.92;;;;;;;21.35;44.23;102695.50;5052643;28;20136;-26
2023/04/08 10:58:54;;;;;;;24.65;15.85;;;;;;;21.37;43.74;102690.84;5051036;28;20626;-27
2023/04/08 11:01:22;;;;;;;27.40;16.35;;;;;;;21.41;43.87;102697.69;5050181;28;20049;-27
2023/04/08 11:03:49;;;;;;;26.67;17.02;;;;;;;21.44;43.76;102692.03;5053966;28;20072;-27
2023/04/08 11:06:17;;;;;;;23.52;15.23;;;;;;;21.47;44.00;102688.22;5052925;28;20614;-27
2023/04/08 11:08:44;;;;;;;23.63;15.40;;;;;;;21.49;43.72;102683.53;5048746;28;20081;-26
2023/04/08 11:11:10;;;;;;;26.95;16.73;;;;;;;21.50;43.62;102687.94;5051939;28;20068;-27
2023/04/08 11:13:44;;;;;;;24.30;15.80;;;;;;;21.53;43.50;102690.38;5050295;28;20167;-26
2023/04/08 11:16:21;;;;;;;23.95;15.68;;;;;;;21.56;43.39;102698.22;5046606;28;20122;-27
2023/04/08 11:18:50;;;;;;;23.73;15.18;;;;;;;21.58;43.36;102693.53;5047816;28;20053;-28
2023/04/08 11:21:16;;;;;;;23.80;15.32;;;;;;;21.58;43.38;102704.31;5046995;28;20053;-27